sensor_id;sensor_type;location;lat;lon;timestamp;temperature;humidity
33955;DHT22;20233;50.804;7.126;2024-02-16T00:00:24;13.10;99.90
33955;DHT22;20233;50.804;7.126;2024-02-16T00:02:50;13.00;99.90
33955;DHT22;20233;50.804;7.126;2024-02-16T00:05:16;13.00;99.90
33955;DHT22;20233;50.804;7.126;2024-02-16T00:07:42;12.90;99.90
33955;DHT22;20233;50.804;7.126;2024-02-16T00:10:08;13.00;99.90
33955;DHT22;20233;50.804;7.126;2024-02-16T00:12:35;12.90;99.90
33955;DHT22;20233;50.804;7.126;2024-02-16T00:15:02;13.00;99.90
33955;DHT22;20233;50.804;7.126;2024-02-16T00:17:28;12.90;99.90
33955;DHT22;20233;50.804;7.126;2024-02-16T00:19:55;12.90;99.90
33955;DHT22;20233;50.804;7.126;2024-02-16T00:22:20;12.90;99.90
33955;DHT22;20233;50.804;7.126;2024-02-16T00:24:46;12.90;99.90
33955;DHT22;20233;50.804;7.126;2024-02-16T00:27:12;12.80;99.90
33955;DHT22;20233;50.804;7.126;2024-02-16T00:29:39;12.80;99.90
33955;DHT22;20233;50.804;7.126;2024-02-16T00:32:05;12.80;99.90
33955;DHT22;20233;50.804;7.126;2024-02-16T00:34:34;12.80;99.90
33955;DHT22;20233;50.804;7.126;2024-02-16T00:37:01;12.80;99.90
33955;DHT22;20233;50.804;7.126;2024-02-16T00:39:27;12.80;99.90
33955;DHT22;20233;50.804;7.126;2024-02-16T00:41:53;12.80;99.90
33955;DHT22;20233;50.804;7.126;2024-02-16T00:44:18;12.80;99.90
33955;DHT22;20233;50.804;7.126;2024-02-16T00:46:44;12.80;99.90
33955;DHT22;20233;50.804;7.126;2024-02-16T00:49:10;12.80;99.90
33955;DHT22;20233;50.804;7.126;2024-02-16T00:51:37;12.80;99.90
33955;DHT22;20233;50.804;7.126;2024-02-16T00:54:02;12.70;99.90
33955;DHT22;20233;50.804;7.126;2024-02-16T00:56:31;12.80;99.90
33955;DHT22;20233;50.804;7.126;2024-02-16T00:58:57;12.80;99.90
33955;DHT22;20233;50.804;7.126;2024-02-16T01:01:23;12.80;99.90
33955;DHT22;20233;50.804;7.126;2024-02-16T01:03:49;12.80;99.90
33955;DHT22;20233;50.804;7.126;2024-02-16T01:06:17;12.80;99.90
33955;DHT22;20233;50.804;7.126;2024-02-16T01:08:43;12.80;99.90
33955;DHT22;20233;50.804;7.126;2024-02-16T01:11:08;12.70;99.90
33955;DHT22;20233;50.804;7.126;2024-02-16T01:13:34;12.80;99.90
33955;DHT22;20233;50.804;7.126;2024-02-16T01:15:59;12.80;99.90
33955;DHT22;20233;50.804;7.126;2024-02-16T01:18:27;12.80;99.90
33955;DHT22;20233;50.804;7.126;2024-02-16T01:20:53;12.80;99.90
33955;DHT22;20233;50.804;7.126;2024-02-16T01:23:19;12.80;99.90
33955;DHT22;20233;50.804;7.126;2024-02-16T01:25:45;12.90;99.90
33955;DHT22;20233;50.804;7.126;2024-02-16T01:28:11;12.80;99.90
33955;DHT22;20233;50.804;7.126;2024-02-16T01:30:38;12.90;99.90
33955;DHT22;20233;50.804;7.126;2024-02-16T01:33:04;12.90;99.90
33955;DHT22;20233;50.804;7.126;2024-02-16T01:35:30;12.90;99.90
33955;DHT22;20233;50.804;7.126;2024-02-16T01:37:56;12.80;99.90
33955;DHT22;20233;50.804;7.126;2024-02-16T01:40:21;12.80;99.90
33955;DHT22;20233;50.804;7.126;2024-02-16T01:42:47;12.90;99.90
33955;DHT22;20233;50.804;7.126;2024-02-16T01:45:13;12.90;99.90
33955;DHT22;20233;50.804;7.126;2024-02-16T01:47:40;12.80;99.90
33955;DHT22;20233;50.804;7.126;2024-02-16T01:50:07;12.90;99.90
33955;DHT22;20233;50.804;7.126;2024-02-16T01:52:33;12.90;99.90
33955;DHT22;20233;50.804;7.126;2024-02-16T01:55:02;12.90;99.90
33955;DHT22;20233;50.804;7.126;2024-02-16T01:57:30;13.00;99.90
33955;DHT22;20233;50.804;7.126;2024-02-16T01:59:55;13.10;99.90
33955;DHT22;20233;50.804;7.126;2024-02-16T02:02:21;13.00;99.90
33955;DHT22;20233;50.804;7.126;2024-02-16T02:04:47;13.00;99.90
33955;DHT22;20233;50.804;7.126;2024-02-16T02:07:16;13.10;99.90
33955;DHT22;20233;50.804;7.126;2024-02-16T02:09:42;13.10;99.90
33955;DHT22;20233;50.804;7.126;2024-02-16T02:12:11;13.00;99.90
33955;DHT22;20233;50.804;7.126;2024-02-16T02:14:37;13.00;99.90
33955;DHT22;20233;50.804;7.126;2024-02-16T02:17:02;13.10;99.90
33955;DHT22;20233;50.804;7.126;2024-02-16T02:19:29;13.10;99.90
33955;DHT22;20233;50.804;7.126;2024-02-16T02:21:55;13.20;99.90
33955;DHT22;20233;50.804;7.126;2024-02-16T02:24:21;13.10;99.90
33955;DHT22;20233;50.804;7.126;2024-02-16T02:26:47;13.20;99.90
33955;DHT22;20233;50.804;7.126;2024-02-16T02:29:12;13.20;99.90
33955;DHT22;20233;50.804;7.126;2024-02-16T02:31:38;13.10;99.90
33955;DHT22;20233;50.804;7.126;2024-02-16T02:34:03;13.10;99.90
33955;DHT22;20233;50.804;7.126;2024-02-16T02:36:31;13.00;99.90
33955;DHT22;20233;50.804;7.126;2024-02-16T02:38:56;13.10;99.90
33955;DHT22;20233;50.804;7.126;2024-02-16T02:41:23;13.10;99.90
33955;DHT22;20233;50.804;7.126;2024-02-16T02:43:48;13.10;99.90
33955;DHT22;20233;50.804;7.126;2024-02-16T02:46:17;13.00;99.90
33955;DHT22;20233;50.804;7.126;2024-02-16T02:48:44;12.80;99.90
33955;DHT22;20233;50.804;7.126;2024-02-16T02:51:09;12.80;99.90
33955;DHT22;20233;50.804;7.126;2024-02-16T02:53:35;12.80;99.90
33955;DHT22;20233;50.804;7.126;2024-02-16T02:56:01;12.80;99.90
33955;DHT22;20233;50.804;7.126;2024-02-16T02:58:27;12.70;99.90
33955;DHT22;20233;50.804;7.126;2024-02-16T03:00:53;12.70;99.90
33955;DHT22;20233;50.804;7.126;2024-02-16T03:03:19;12.70;99.90
33955;DHT22;20233;50.804;7.126;2024-02-16T03:05:45;12.80;99.90
33955;DHT22;20233;50.804;7.126;2024-02-16T03:08:11;12.90;99.90
33955;DHT22;20233;50.804;7.126;2024-02-16T03:10:37;13.00;99.90
33955;DHT22;20233;50.804;7.126;2024-02-16T03:13:02;13.10;99.90
33955;DHT22;20233;50.804;7.126;2024-02-16T03:15:29;13.10;99.90
33955;DHT22;20233;50.804;7.126;2024-02-16T03:17:55;13.10;99.90
33955;DHT22;20233;50.804;7.126;2024-02-16T03:20:20;13.10;99.90
33955;DHT22;20233;50.804;7.126;2024-02-16T03:22:47;13.20;99.90
33955;DHT22;20233;50.804;7.126;2024-02-16T03:25:13;13.20;99.90
33955;DHT22;20233;50.804;7.126;2024-02-16T03:27:39;13.20;99.90
33955;DHT22;20233;50.804;7.126;2024-02-16T03:30:05;13.30;99.90
33955;DHT22;20233;50.804;7.126;2024-02-16T03:32:31;13.30;99.90
33955;DHT22;20233;50.804;7.126;2024-02-16T03:34:57;13.30;99.90
33955;DHT22;20233;50.804;7.126;2024-02-16T03:37:24;13.20;99.90
33955;DHT22;20233;50.804;7.126;2024-02-16T03:39:49;13.10;99.90
33955;DHT22;20233;50.804;7.126;2024-02-16T03:42:16;13.10;99.90
33955;DHT22;20233;50.804;7.126;2024-02-16T03:44:43;13.20;99.90
33955;DHT22;20233;50.804;7.126;2024-02-16T03:47:09;13.20;99.90
33955;DHT22;20233;50.804;7.126;2024-02-16T03:49:34;13.20;99.90
33955;DHT22;20233;50.804;7.126;2024-02-16T03:52:01;13.10;99.90
33955;DHT22;20233;50.804;7.126;2024-02-16T03:54:27;13.20;99.90
33955;DHT22;20233;50.804;7.126;2024-02-16T03:56:53;13.10;99.90
33955;DHT22;20233;50.804;7.126;2024-02-16T03:59:19;13.00;99.90
33955;DHT22;20233;50.804;7.126;2024-02-16T04:01:44;13.00;99.90
33955;DHT22;20233;50.804;7.126;2024-02-16T04:04:10;12.90;99.90
33955;DHT22;20233;50.804;7.126;2024-02-16T04:06:36;13.00;99.90
33955;DHT22;20233;50.804;7.126;2024-02-16T04:09:02;13.00;99.90
33955;DHT22;20233;50.804;7.126;2024-02-16T04:11:27;12.90;99.90
33955;DHT22;20233;50.804;7.126;2024-02-16T04:13:54;12.90;99.90
33955;DHT22;20233;50.804;7.126;2024-02-16T04:16:20;13.00;99.90
33955;DHT22;20233;50.804;7.126;2024-02-16T04:18:47;13.00;99.90
33955;DHT22;20233;50.804;7.126;2024-02-16T04:21:13;13.00;99.90
33955;DHT22;20233;50.804;7.126;2024-02-16T04:23:38;13.00;99.90
33955;DHT22;20233;50.804;7.126;2024-02-16T04:26:04;13.00;99.90
33955;DHT22;20233;50.804;7.126;2024-02-16T04:28:32;13.00;99.90
33955;DHT22;20233;50.804;7.126;2024-02-16T04:30:57;13.00;99.90
33955;DHT22;20233;50.804;7.126;2024-02-16T04:33:23;13.00;99.90
33955;DHT22;20233;50.804;7.126;2024-02-16T04:35:49;13.00;99.90
33955;DHT22;20233;50.804;7.126;2024-02-16T04:38:16;12.90;99.90
33955;DHT22;20233;50.804;7.126;2024-02-16T04:40:43;13.00;99.90
33955;DHT22;20233;50.804;7.126;2024-02-16T04:43:09;13.00;99.90
33955;DHT22;20233;50.804;7.126;2024-02-16T04:45:35;13.10;99.90
33955;DHT22;20233;50.804;7.126;2024-02-16T04:48:07;13.00;99.90
33955;DHT22;20233;50.804;7.126;2024-02-16T04:50:34;13.10;99.90
33955;DHT22;20233;50.804;7.126;2024-02-16T04:53:01;13.10;99.90
33955;DHT22;20233;50.804;7.126;2024-02-16T04:55:27;13.10;99.90
33955;DHT22;20233;50.804;7.126;2024-02-16T04:57:54;13.10;99.90
33955;DHT22;20233;50.804;7.126;2024-02-16T05:00:20;13.00;99.90
33955;DHT22;20233;50.804;7.126;2024-02-16T05:02:47;13.00;99.90
33955;DHT22;20233;50.804;7.126;2024-02-16T05:05:12;13.00;99.90
33955;DHT22;20233;50.804;7.126;2024-02-16T05:07:38;13.10;99.90
33955;DHT22;20233;50.804;7.126;2024-02-16T05:10:08;13.10;99.90
33955;DHT22;20233;50.804;7.126;2024-02-16T05:12:34;13.10;99.90
33955;DHT22;20233;50.804;7.126;2024-02-16T05:15:01;13.00;99.90
33955;DHT22;20233;50.804;7.126;2024-02-16T05:17:26;13.00;99.90
33955;DHT22;20233;50.804;7.126;2024-02-16T05:19:52;13.20;99.90
33955;DHT22;20233;50.804;7.126;2024-02-16T05:22:19;13.20;99.90
33955;DHT22;20233;50.804;7.126;2024-02-16T05:24:45;13.10;99.90
33955;DHT22;20233;50.804;7.126;2024-02-16T05:27:11;13.20;99.90
33955;DHT22;20233;50.804;7.126;2024-02-16T05:29:36;13.20;99.90
33955;DHT22;20233;50.804;7.126;2024-02-16T05:32:02;13.30;99.90
33955;DHT22;20233;50.804;7.126;2024-02-16T05:34:27;13.20;99.90
33955;DHT22;20233;50.804;7.126;2024-02-16T05:36:57;13.20;99.90
33955;DHT22;20233;50.804;7.126;2024-02-16T05:39:23;13.30;99.90
33955;DHT22;20233;50.804;7.126;2024-02-16T05:41:57;13.30;99.90
33955;DHT22;20233;50.804;7.126;2024-02-16T05:44:23;13.30;99.90
33955;DHT22;20233;50.804;7.126;2024-02-16T05:46:48;13.30;99.90
33955;DHT22;20233;50.804;7.126;2024-02-16T05:49:15;13.40;99.90
33955;DHT22;20233;50.804;7.126;2024-02-16T05:51:41;13.40;99.90
33955;DHT22;20233;50.804;7.126;2024-02-16T05:54:07;13.40;99.90
33955;DHT22;20233;50.804;7.126;2024-02-16T05:56:34;13.40;99.90
33955;DHT22;20233;50.804;7.126;2024-02-16T05:59:00;13.40;99.90
33955;DHT22;20233;50.804;7.126;2024-02-16T06:01:26;13.40;99.90
33955;DHT22;20233;50.804;7.126;2024-02-16T06:03:53;13.50;99.90
33955;DHT22;20233;50.804;7.126;2024-02-16T06:06:18;13.50;99.90
33955;DHT22;20233;50.804;7.126;2024-02-16T06:08:44;13.50;99.90
33955;DHT22;20233;50.804;7.126;2024-02-16T06:11:09;13.60;99.90
33955;DHT22;20233;50.804;7.126;2024-02-16T06:13:35;13.50;99.90
33955;DHT22;20233;50.804;7.126;2024-02-16T06:16:00;13.50;99.90
33955;DHT22;20233;50.804;7.126;2024-02-16T06:18:26;13.50;99.90
33955;DHT22;20233;50.804;7.126;2024-02-16T06:20:55;13.50;99.90
33955;DHT22;20233;50.804;7.126;2024-02-16T06:23:20;13.50;99.90
33955;DHT22;20233;50.804;7.126;2024-02-16T06:25:46;13.50;99.90
33955;DHT22;20233;50.804;7.126;2024-02-16T06:28:11;13.50;99.90
33955;DHT22;20233;50.804;7.126;2024-02-16T06:30:37;13.60;99.90
33955;DHT22;20233;50.804;7.126;2024-02-16T06:33:03;13.60;99.90
33955;DHT22;20233;50.804;7.126;2024-02-16T06:35:29;13.60;99.90
33955;DHT22;20233;50.804;7.126;2024-02-16T06:37:55;13.60;99.90
33955;DHT22;20233;50.804;7.126;2024-02-16T06:40:22;13.60;99.90
33955;DHT22;20233;50.804;7.126;2024-02-16T06:42:47;13.60;99.90
33955;DHT22;20233;50.804;7.126;2024-02-16T06:45:13;13.60;99.90
33955;DHT22;20233;50.804;7.126;2024-02-16T06:47:38;13.60;99.90
33955;DHT22;20233;50.804;7.126;2024-02-16T06:50:05;13.70;99.90
33955;DHT22;20233;50.804;7.126;2024-02-16T06:52:31;13.60;99.90
33955;DHT22;20233;50.804;7.126;2024-02-16T06:54:56;13.60;99.90
33955;DHT22;20233;50.804;7.126;2024-02-16T06:57:22;13.60;99.90
33955;DHT22;20233;50.804;7.126;2024-02-16T06:59:48;13.60;99.90
33955;DHT22;20233;50.804;7.126;2024-02-16T07:02:13;13.60;99.90
33955;DHT22;20233;50.804;7.126;2024-02-16T07:04:40;13.60;99.90
33955;DHT22;20233;50.804;7.126;2024-02-16T07:07:07;13.70;99.90
33955;DHT22;20233;50.804;7.126;2024-02-16T07:09:33;13.70;99.90
33955;DHT22;20233;50.804;7.126;2024-02-16T07:11:59;13.70;99.90
33955;DHT22;20233;50.804;7.126;2024-02-16T07:14:24;13.70;99.90
33955;DHT22;20233;50.804;7.126;2024-02-16T07:16:50;13.70;99.90
33955;DHT22;20233;50.804;7.126;2024-02-16T07:19:16;13.70;99.90
33955;DHT22;20233;50.804;7.126;2024-02-16T07:21:43;13.70;99.90
33955;DHT22;20233;50.804;7.126;2024-02-16T07:24:10;13.80;99.90
33955;DHT22;20233;50.804;7.126;2024-02-16T07:26:36;13.80;99.90
33955;DHT22;20233;50.804;7.126;2024-02-16T07:29:02;13.80;99.90
33955;DHT22;20233;50.804;7.126;2024-02-16T07:31:32;13.80;99.90
33955;DHT22;20233;50.804;7.126;2024-02-16T07:33:59;13.90;99.90
33955;DHT22;20233;50.804;7.126;2024-02-16T07:36:25;13.90;99.90
33955;DHT22;20233;50.804;7.126;2024-02-16T07:38:50;13.80;99.90
33955;DHT22;20233;50.804;7.126;2024-02-16T07:41:16;13.80;99.90
33955;DHT22;20233;50.804;7.126;2024-02-16T07:43:42;13.80;99.90
33955;DHT22;20233;50.804;7.126;2024-02-16T07:46:08;13.90;99.90
33955;DHT22;20233;50.804;7.126;2024-02-16T07:48:34;13.80;99.90
33955;DHT22;20233;50.804;7.126;2024-02-16T07:51:00;13.80;99.90
33955;DHT22;20233;50.804;7.126;2024-02-16T07:53:29;13.80;99.90
33955;DHT22;20233;50.804;7.126;2024-02-16T07:55:54;13.80;99.90
33955;DHT22;20233;50.804;7.126;2024-02-16T07:58:20;13.80;99.90
33955;DHT22;20233;50.804;7.126;2024-02-16T08:00:46;13.90;99.90
33955;DHT22;20233;50.804;7.126;2024-02-16T08:03:11;13.90;99.90
33955;DHT22;20233;50.804;7.126;2024-02-16T08:05:37;13.90;99.90
33955;DHT22;20233;50.804;7.126;2024-02-16T08:08:03;13.90;99.90
33955;DHT22;20233;50.804;7.126;2024-02-16T08:10:29;14.00;99.90
33955;DHT22;20233;50.804;7.126;2024-02-16T08:12:54;14.00;99.90
33955;DHT22;20233;50.804;7.126;2024-02-16T08:15:20;14.00;99.90
33955;DHT22;20233;50.804;7.126;2024-02-16T08:17:49;14.00;99.90
33955;DHT22;20233;50.804;7.126;2024-02-16T08:20:19;14.10;99.90
33955;DHT22;20233;50.804;7.126;2024-02-16T08:22:46;14.10;99.90
33955;DHT22;20233;50.804;7.126;2024-02-16T08:25:12;14.10;99.90
33955;DHT22;20233;50.804;7.126;2024-02-16T08:27:37;14.20;99.90
33955;DHT22;20233;50.804;7.126;2024-02-16T08:30:04;14.20;99.90
33955;DHT22;20233;50.804;7.126;2024-02-16T08:32:31;14.20;99.90
33955;DHT22;20233;50.804;7.126;2024-02-16T08:34:56;14.10;99.90
33955;DHT22;20233;50.804;7.126;2024-02-16T08:37:23;14.20;99.90
33955;DHT22;20233;50.804;7.126;2024-02-16T08:39:49;14.20;99.90
33955;DHT22;20233;50.804;7.126;2024-02-16T08:42:15;14.30;99.90
33955;DHT22;20233;50.804;7.126;2024-02-16T08:44:40;14.30;99.90
33955;DHT22;20233;50.804;7.126;2024-02-16T08:47:07;14.30;99.90
33955;DHT22;20233;50.804;7.126;2024-02-16T08:49:33;14.30;99.90
33955;DHT22;20233;50.804;7.126;2024-02-16T08:51:59;14.30;99.90
33955;DHT22;20233;50.804;7.126;2024-02-16T08:54:25;14.40;99.90
33955;DHT22;20233;50.804;7.126;2024-02-16T08:56:52;14.40;99.90
33955;DHT22;20233;50.804;7.126;2024-02-16T08:59:18;14.40;99.90
33955;DHT22;20233;50.804;7.126;2024-02-16T09:01:44;14.40;99.90
33955;DHT22;20233;50.804;7.126;2024-02-16T09:04:09;14.50;99.90
33955;DHT22;20233;50.804;7.126;2024-02-16T09:06:35;14.50;99.90
33955;DHT22;20233;50.804;7.126;2024-02-16T09:09:01;14.50;99.90
33955;DHT22;20233;50.804;7.126;2024-02-16T09:11:28;14.50;99.90
33955;DHT22;20233;50.804;7.126;2024-02-16T09:13:54;14.50;99.90
33955;DHT22;20233;50.804;7.126;2024-02-16T09:16:19;14.60;99.90
33955;DHT22;20233;50.804;7.126;2024-02-16T09:21:13;14.60;99.90
33955;DHT22;20233;50.804;7.126;2024-02-16T09:23:39;14.60;99.90
33955;DHT22;20233;50.804;7.126;2024-02-16T09:26:05;14.60;99.90
33955;DHT22;20233;50.804;7.126;2024-02-16T09:28:31;14.70;99.90
33955;DHT22;20233;50.804;7.126;2024-02-16T09:30:57;14.60;99.90
33955;DHT22;20233;50.804;7.126;2024-02-16T09:33:24;14.70;99.90
33955;DHT22;20233;50.804;7.126;2024-02-16T09:35:50;14.70;99.90
33955;DHT22;20233;50.804;7.126;2024-02-16T09:38:16;14.70;99.90
33955;DHT22;20233;50.804;7.126;2024-02-16T09:40:42;14.70;99.90
33955;DHT22;20233;50.804;7.126;2024-02-16T09:43:08;14.70;99.90
33955;DHT22;20233;50.804;7.126;2024-02-16T09:45:34;14.70;99.90
33955;DHT22;20233;50.804;7.126;2024-02-16T09:48:00;14.70;99.90
33955;DHT22;20233;50.804;7.126;2024-02-16T09:50:27;14.70;99.90
33955;DHT22;20233;50.804;7.126;2024-02-16T09:52:54;14.70;99.90
33955;DHT22;20233;50.804;7.126;2024-02-16T09:55:20;14.70;99.90
33955;DHT22;20233;50.804;7.126;2024-02-16T09:57:46;14.70;99.90
33955;DHT22;20233;50.804;7.126;2024-02-16T10:00:12;14.70;99.90
33955;DHT22;20233;50.804;7.126;2024-02-16T10:02:45;14.80;99.90
33955;DHT22;20233;50.804;7.126;2024-02-16T10:05:15;14.80;99.90
33955;DHT22;20233;50.804;7.126;2024-02-16T10:07:44;14.80;99.90
33955;DHT22;20233;50.804;7.126;2024-02-16T10:10:27;14.90;99.90
33955;DHT22;20233;50.804;7.126;2024-02-16T10:13:02;14.90;99.90
33955;DHT22;20233;50.804;7.126;2024-02-16T10:15:29;14.80;99.90
33955;DHT22;20233;50.804;7.126;2024-02-16T10:20:27;14.80;99.90
33955;DHT22;20233;50.804;7.126;2024-02-16T10:23:10;14.80;99.90
33955;DHT22;20233;50.804;7.126;2024-02-16T10:25:37;14.70;99.90
33955;DHT22;20233;50.804;7.126;2024-02-16T10:28:07;14.70;99.90
33955;DHT22;20233;50.804;7.126;2024-02-16T10:30:37;14.60;99.90
33955;DHT22;20233;50.804;7.126;2024-02-16T10:33:06;14.70;99.90
33955;DHT22;20233;50.804;7.126;2024-02-16T10:35:36;14.70;99.90
33955;DHT22;20233;50.804;7.126;2024-02-16T10:38:05;14.60;99.90
33955;DHT22;20233;50.804;7.126;2024-02-16T10:40:37;14.70;99.90
33955;DHT22;20233;50.804;7.126;2024-02-16T10:43:04;14.60;99.90
33955;DHT22;20233;50.804;7.126;2024-02-16T10:45:35;14.70;99.90
33955;DHT22;20233;50.804;7.126;2024-02-16T10:48:06;14.70;99.90
33955;DHT22;20233;50.804;7.126;2024-02-16T10:50:34;14.80;99.90
33955;DHT22;20233;50.804;7.126;2024-02-16T10:53:06;14.70;99.90
33955;DHT22;20233;50.804;7.126;2024-02-16T10:55:34;14.80;99.90
33955;DHT22;20233;50.804;7.126;2024-02-16T10:58:01;14.80;99.90
33955;DHT22;20233;50.804;7.126;2024-02-16T11:00:26;14.80;99.90
33955;DHT22;20233;50.804;7.126;2024-02-16T11:02:56;14.80;99.90
33955;DHT22;20233;50.804;7.126;2024-02-16T11:05:40;14.80;99.90
33955;DHT22;20233;50.804;7.126;2024-02-16T11:08:14;14.80;99.90
33955;DHT22;20233;50.804;7.126;2024-02-16T11:10:40;14.80;99.90
33955;DHT22;20233;50.804;7.126;2024-02-16T11:13:06;14.90;99.90
33955;DHT22;20233;50.804;7.126;2024-02-16T11:15:32;14.80;99.90
33955;DHT22;20233;50.804;7.126;2024-02-16T11:18:00;14.90;99.90
33955;DHT22;20233;50.804;7.126;2024-02-16T11:20:26;14.90;99.90
33955;DHT22;20233;50.804;7.126;2024-02-16T11:22:52;14.90;99.90
33955;DHT22;20233;50.804;7.126;2024-02-16T11:25:19;14.90;99.90
33955;DHT22;20233;50.804;7.126;2024-02-16T11:27:47;14.90;99.90
33955;DHT22;20233;50.804;7.126;2024-02-16T11:30:13;14.90;99.90
33955;DHT22;20233;50.804;7.126;2024-02-16T11:32:42;15.00;99.90
33955;DHT22;20233;50.804;7.126;2024-02-16T11:35:08;15.00;99.90
33955;DHT22;20233;50.804;7.126;2024-02-16T11:37:34;15.00;99.90
33955;DHT22;20233;50.804;7.126;2024-02-16T11:40:01;15.00;99.90
33955;DHT22;20233;50.804;7.126;2024-02-16T11:42:27;15.00;99.90
33955;DHT22;20233;50.804;7.126;2024-02-16T11:44:57;15.10;99.90
33955;DHT22;20233;50.804;7.126;2024-02-16T11:47:24;15.10;99.90
33955;DHT22;20233;50.804;7.126;2024-02-16T11:50:09;15.10;99.90
33955;DHT22;20233;50.804;7.126;2024-02-16T11:52:41;15.10;99.90
33955;DHT22;20233;50.804;7.126;2024-02-16T11:55:10;15.20;99.90
33955;DHT22;20233;50.804;7.126;2024-02-16T11:57:37;15.20;99.90
33955;DHT22;20233;50.804;7.126;2024-02-16T12:00:04;15.20;99.90
33955;DHT22;20233;50.804;7.126;2024-02-16T12:02:35;15.30;99.90
33955;DHT22;20233;50.804;7.126;2024-02-16T12:05:02;15.30;99.90
33955;DHT22;20233;50.804;7.126;2024-02-16T12:07:28;15.40;99.90
33955;DHT22;20233;50.804;7.126;2024-02-16T12:09:58;15.40;99.90
33955;DHT22;20233;50.804;7.126;2024-02-16T12:12:24;15.40;99.90
33955;DHT22;20233;50.804;7.126;2024-02-16T12:14:50;15.30;99.90
33955;DHT22;20233;50.804;7.126;2024-02-16T12:17:16;15.40;99.90
33955;DHT22;20233;50.804;7.126;2024-02-16T12:19:45;15.40;99.90
33955;DHT22;20233;50.804;7.126;2024-02-16T12:22:16;15.30;99.90
33955;DHT22;20233;50.804;7.126;2024-02-16T12:24:43;15.30;99.90
33955;DHT22;20233;50.804;7.126;2024-02-16T12:27:09;15.30;99.90
33955;DHT22;20233;50.804;7.126;2024-02-16T12:29:34;15.30;99.90
33955;DHT22;20233;50.804;7.126;2024-02-16T12:32:00;15.30;99.90
33955;DHT22;20233;50.804;7.126;2024-02-16T12:34:26;15.20;99.90
33955;DHT22;20233;50.804;7.126;2024-02-16T12:36:53;15.30;99.90
33955;DHT22;20233;50.804;7.126;2024-02-16T12:39:19;15.20;99.90
33955;DHT22;20233;50.804;7.126;2024-02-16T12:41:46;15.20;99.90
33955;DHT22;20233;50.804;7.126;2024-02-16T12:44:12;15.20;99.90
33955;DHT22;20233;50.804;7.126;2024-02-16T12:46:37;15.20;99.90
33955;DHT22;20233;50.804;7.126;2024-02-16T12:49:04;15.20;99.90
33955;DHT22;20233;50.804;7.126;2024-02-16T12:51:30;15.20;99.90
33955;DHT22;20233;50.804;7.126;2024-02-16T12:53:55;15.20;99.90
33955;DHT22;20233;50.804;7.126;2024-02-16T12:56:21;15.20;99.90
33955;DHT22;20233;50.804;7.126;2024-02-16T12:58:47;15.20;99.90
33955;DHT22;20233;50.804;7.126;2024-02-16T13:01:13;15.20;99.90
33955;DHT22;20233;50.804;7.126;2024-02-16T13:03:39;15.20;99.90
33955;DHT22;20233;50.804;7.126;2024-02-16T13:06:05;15.10;99.90
33955;DHT22;20233;50.804;7.126;2024-02-16T13:08:31;15.00;99.90
33955;DHT22;20233;50.804;7.126;2024-02-16T13:10:58;15.10;99.90
33955;DHT22;20233;50.804;7.126;2024-02-16T13:13:24;15.20;99.90
33955;DHT22;20233;50.804;7.126;2024-02-16T13:15:50;15.20;99.90
33955;DHT22;20233;50.804;7.126;2024-02-16T13:18:16;15.20;99.90
33955;DHT22;20233;50.804;7.126;2024-02-16T13:20:42;15.20;99.90
33955;DHT22;20233;50.804;7.126;2024-02-16T13:23:08;15.10;99.90
33955;DHT22;20233;50.804;7.126;2024-02-16T13:25:35;15.10;99.90
33955;DHT22;20233;50.804;7.126;2024-02-16T13:28:00;15.10;99.90
33955;DHT22;20233;50.804;7.126;2024-02-16T13:30:26;15.00;99.90
33955;DHT22;20233;50.804;7.126;2024-02-16T13:32:53;15.10;99.90
33955;DHT22;20233;50.804;7.126;2024-02-16T13:35:19;15.00;99.90
33955;DHT22;20233;50.804;7.126;2024-02-16T13:37:44;14.90;99.90
33955;DHT22;20233;50.804;7.126;2024-02-16T13:40:10;15.00;99.90
33955;DHT22;20233;50.804;7.126;2024-02-16T13:42:40;15.00;99.90
33955;DHT22;20233;50.804;7.126;2024-02-16T13:45:07;15.00;99.90
33955;DHT22;20233;50.804;7.126;2024-02-16T13:47:33;14.90;99.90
33955;DHT22;20233;50.804;7.126;2024-02-16T13:49:59;14.90;99.90
33955;DHT22;20233;50.804;7.126;2024-02-16T13:53:24;14.90;99.90
33955;DHT22;20233;50.804;7.126;2024-02-16T13:55:39;14.80;99.90
33955;DHT22;20233;50.804;7.126;2024-02-16T13:58:45;14.80;99.90
33955;DHT22;20233;50.804;7.126;2024-02-16T14:02:13;14.80;99.90
33955;DHT22;20233;50.804;7.126;2024-02-16T14:08:15;14.70;99.90
33955;DHT22;20233;50.804;7.126;2024-02-16T14:11:00;14.70;99.90
33955;DHT22;20233;50.804;7.126;2024-02-16T14:13:26;14.70;99.90
33955;DHT22;20233;50.804;7.126;2024-02-16T14:16:06;14.70;99.90
33955;DHT22;20233;50.804;7.126;2024-02-16T14:18:39;14.80;99.90
33955;DHT22;20233;50.804;7.126;2024-02-16T14:21:16;14.80;99.90
33955;DHT22;20233;50.804;7.126;2024-02-16T14:23:45;14.70;99.90
33955;DHT22;20233;50.804;7.126;2024-02-16T14:26:21;14.70;99.90
33955;DHT22;20233;50.804;7.126;2024-02-16T14:29:00;14.80;99.90
33955;DHT22;20233;50.804;7.126;2024-02-16T14:31:46;14.80;99.90
33955;DHT22;20233;50.804;7.126;2024-02-16T14:34:18;14.80;99.90
33955;DHT22;20233;50.804;7.126;2024-02-16T14:37:00;14.80;99.90
33955;DHT22;20233;50.804;7.126;2024-02-16T14:39:26;14.80;99.90
33955;DHT22;20233;50.804;7.126;2024-02-16T14:41:51;14.80;99.90
33955;DHT22;20233;50.804;7.126;2024-02-16T14:44:23;14.80;99.90
33955;DHT22;20233;50.804;7.126;2024-02-16T14:46:50;14.80;99.90
33955;DHT22;20233;50.804;7.126;2024-02-16T14:49:16;14.90;99.90
33955;DHT22;20233;50.804;7.126;2024-02-16T14:51:48;14.90;99.90
33955;DHT22;20233;50.804;7.126;2024-02-16T14:54:14;14.80;99.90
33955;DHT22;20233;50.804;7.126;2024-02-16T14:56:40;14.80;99.90
33955;DHT22;20233;50.804;7.126;2024-02-16T14:59:06;14.80;99.90
33955;DHT22;20233;50.804;7.126;2024-02-16T15:01:32;14.80;99.90
33955;DHT22;20233;50.804;7.126;2024-02-16T15:03:58;14.80;99.90
33955;DHT22;20233;50.804;7.126;2024-02-16T15:06:25;14.90;99.90
33955;DHT22;20233;50.804;7.126;2024-02-16T15:08:50;14.90;99.90
33955;DHT22;20233;50.804;7.126;2024-02-16T15:11:16;14.90;99.90
33955;DHT22;20233;50.804;7.126;2024-02-16T15:13:43;14.90;99.90
33955;DHT22;20233;50.804;7.126;2024-02-16T15:16:09;14.90;99.90
33955;DHT22;20233;50.804;7.126;2024-02-16T15:18:35;14.90;99.90
33955;DHT22;20233;50.804;7.126;2024-02-16T15:21:01;14.90;99.90
33955;DHT22;20233;50.804;7.126;2024-02-16T15:23:27;14.90;99.90
33955;DHT22;20233;50.804;7.126;2024-02-16T15:25:53;14.80;99.90
33955;DHT22;20233;50.804;7.126;2024-02-16T15:28:19;14.90;99.90
33955;DHT22;20233;50.804;7.126;2024-02-16T15:30:45;14.90;99.90
33955;DHT22;20233;50.804;7.126;2024-02-16T15:33:11;14.80;99.90
33955;DHT22;20233;50.804;7.126;2024-02-16T15:35:37;14.80;99.90
33955;DHT22;20233;50.804;7.126;2024-02-16T15:38:03;14.70;99.90